Time;durP1;ratioP1;P1;durP2;ratioP2;P2;SDS_P1;SDS_P2;PMS_P1;PMS_P2;Temp;Humidity;BMP_temperature;BMP_pressure;BME280_temperature;BME280_humidity;BME280_pressure;Samples;Min_cycle;Max_cycle;Signal;HPM_P1;HPM_P2
2023/10/04 00:01:16;;;;;;;23.60;11.70;;;;;;;12.16;60.69;99637.17;107096;1257;73898;-38
2023/10/04 00:03:46;;;;;;;20.70;11.40;;;;;;;12.12;60.75;99634.86;107103;1256;67890;-38
2023/10/04 00:06:14;;;;;;;24.00;11.40;;;;;;;12.08;60.81;99629.19;107064;1263;72702;-39
2023/10/04 00:08:42;;;;;;;21.70;10.60;;;;;;;12.06;61.04;99625.04;107154;1263;61116;-38
2023/10/04 00:11:14;;;;;;;24.30;12.10;;;;;;;12.06;61.13;99623.02;107215;1257;60593;-39
2023/10/04 00:13:46;;;;;;;19.30;10.50;;;;;;;12.08;61.19;99615.37;107253;1257;73828;-38
2023/10/04 00:16:14;;;;;;;21.50;11.20;;;;;;;12.07;61.07;99614.20;107252;1257;65627;-38
2023/10/04 00:18:42;;;;;;;21.10;11.50;;;;;;;12.07;61.16;99618.54;107220;1262;72768;-38
2023/10/04 00:21:10;;;;;;;21.10;10.90;;;;;;;12.04;61.10;99616.78;107082;1257;60360;-39
2023/10/04 00:23:41;;;;;;;22.50;10.90;;;;;;;11.98;61.05;99618.78;107071;1257;60326;-38
2023/10/04 00:26:10;;;;;;;23.30;11.20;;;;;;;11.91;61.28;99622.16;107111;1257;73885;-39
2023/10/04 00:28:38;;;;;;;22.40;10.60;;;;;;;11.87;61.40;99622.07;107219;1257;67567;-38
2023/10/04 00:31:06;;;;;;;21.60;10.80;;;;;;;11.85;61.63;99621.83;107058;1257;72741;-38
2023/10/04 00:33:35;;;;;;;19.40;10.70;;;;;;;11.88;61.64;99618.13;107039;1261;60528;-38
2023/10/04 00:36:06;;;;;;;23.70;11.00;;;;;;;11.95;61.65;99614.99;107074;1256;60336;-38
2023/10/04 00:38:34;;;;;;;22.30;11.50;;;;;;;11.98;61.58;99612.02;107190;1256;73846;-38
2023/10/04 00:41:08;;;;;;;22.40;11.20;;;;;;;11.99;61.53;99609.80;107089;1263;66501;-39
2023/10/04 00:43:51;;;;;;;20.20;10.60;;;;;;;12.01;61.42;99607.03;107230;1258;72707;-38
2023/10/04 00:46:20;;;;;;;22.00;11.00;;;;;;;12.02;61.35;99603.95;107195;1257;60417;-38
2023/10/04 00:48:54;;;;;;;21.20;11.50;;;;;;;12.03;61.14;99604.42;107123;1257;60301;-38
2023/10/04 00:51:26;;;;;;;22.00;10.60;;;;;;;12.02;61.17;99602.30;107248;1257;73841;-39
2023/10/04 00:53:55;;;;;;;24.20;10.80;;;;;;;12.00;61.25;99599.95;107075;1257;67596;-38
2023/10/04 00:56:23;;;;;;;23.80;10.50;;;;;;;11.99;61.42;99598.14;107050;1257;72709;-38
2023/10/04 00:58:52;;;;;;;20.20;10.80;;;;;;;11.97;61.38;99598.02;106905;1258;212069;-38
2023/10/04 01:02:15;;;;;;;23.10;10.80;;;;;;;11.94;61.28;99597.35;104079;1292;600915;-38
2023/10/04 01:04:42;;;;;;;21.90;11.60;;;;;;;11.89;61.33;99602.64;106744;1264;60079;-38
2023/10/04 01:07:10;;;;;;;21.90;11.30;;;;;;;11.86;61.42;99599.09;106807;1263;60008;-38
2023/10/04 01:09:38;;;;;;;24.20;10.40;;;;;;;11.82;61.54;99597.92;106770;1263;71001;-38
2023/10/04 01:12:06;;;;;;;21.90;10.50;;;;;;;11.80;61.53;99596.64;106728;1263;67581;-38
2023/10/04 01:14:37;;;;;;;21.30;11.00;;;;;;;11.76;61.73;99589.44;106775;1267;71442;-38
2023/10/04 01:17:10;;;;;;;22.60;11.60;;;;;;;11.79;61.79;99590.73;106750;1260;168423;-38
2023/10/04 01:19:37;;;;;;;25.10;11.90;;;;;;;11.85;61.73;99590.61;106880;1260;60065;-38
2023/10/04 01:22:05;;;;;;;23.60;10.60;;;;;;;11.88;61.64;99590.35;106899;1260;72284;-38
2023/10/04 01:24:34;;;;;;;19.30;10.90;;;;;;;11.90;61.45;99587.21;106836;1260;66280;-38
2023/10/04 01:27:02;;;;;;;21.30;11.00;;;;;;;11.91;61.32;99583.03;106841;1261;72671;-38
2023/10/04 01:29:29;;;;;;;20.40;11.30;;;;;;;11.89;61.28;99584.70;106884;1261;60251;-38
2023/10/04 01:31:57;;;;;;;21.00;11.70;;;;;;;11.88;61.35;99578.94;106878;1260;59611;-38
2023/10/04 01:34:25;;;;;;;28.50;12.10;;;;;;;11.88;61.35;99580.34;106870;1260;71782;-38
2023/10/04 01:36:54;;;;;;;24.70;11.00;;;;;;;11.87;61.35;99579.45;106884;1260;66702;-38
2023/10/04 01:39:22;;;;;;;23.00;11.90;;;;;;;11.85;61.39;99577.33;106897;1263;71131;-38
2023/10/04 01:41:51;;;;;;;21.90;11.90;;;;;;;11.82;61.31;99575.34;106935;1266;60102;-38
2023/10/04 01:44:19;;;;;;;22.90;11.80;;;;;;;11.73;61.50;99562.60;107006;1261;60031;-38
2023/10/04 01:46:46;;;;;;;21.90;12.10;;;;;;;11.76;61.68;99569.11;106874;1261;73183;-38
2023/10/04 01:49:14;;;;;;;28.20;12.20;;;;;;;11.75;61.64;99564.76;106901;1260;67759;-38
2023/10/04 01:51:42;;;;;;;27.20;12.70;;;;;;;11.73;61.56;99555.94;106874;1263;71835;-38
2023/10/04 01:54:15;;;;;;;24.90;11.70;;;;;;;11.70;61.63;99553.71;106853;1260;60085;-38
2023/10/04 01:56:43;;;;;;;;;;;;;;;11.70;61.56;99549.58;106923;1261;60688;-38
2023/10/04 01:59:13;;;;;;;26.00;12.30;;;;;;;11.66;61.48;99547.73;106770;1260;72986;-38
2023/10/04 02:01:41;;;;;;;25.60;13.00;;;;;;;11.56;61.50;99539.64;106863;1260;67752;-38
2023/10/04 02:04:09;;;;;;;26.60;12.30;;;;;;;11.54;61.80;99538.38;106802;1261;71446;-38
2023/10/04 02:06:37;;;;;;;22.40;11.20;;;;;;;11.55;61.69;99537.91;106874;1262;60748;-38
2023/10/04 02:09:10;;;;;;;21.80;12.30;;;;;;;11.59;61.71;99536.59;106880;1261;60040;-38
2023/10/04 02:11:39;;;;;;;23.70;12.80;;;;;;;11.58;61.71;99534.39;106925;1266;71746;-38
2023/10/04 02:14:07;;;;;;;26.20;12.90;;;;;;;11.56;61.88;99534.52;106791;1261;68172;-38
2023/10/04 02:16:35;;;;;;;29.90;13.50;;;;;;;11.57;61.96;99533.45;106829;1261;72807;-38
2023/10/04 02:19:02;;;;;;;27.60;13.20;;;;;;;11.60;61.85;99532.18;106890;1261;59481;-38
2023/10/04 02:21:30;;;;;;;27.10;12.60;;;;;;;11.61;61.85;99527.08;106906;1261;60218;-38
2023/10/04 02:23:58;;;;;;;24.10;12.90;;;;;;;11.62;61.75;99527.09;106904;1261;73041;-38
2023/10/04 02:26:28;;;;;;;24.80;13.80;;;;;;;11.64;61.70;99523.34;106896;1263;67651;-38
2023/10/04 02:28:57;;;;;;;24.60;12.90;;;;;;;11.64;61.72;99519.91;106867;1263;72716;-38
2023/10/04 02:31:25;;;;;;;22.40;12.20;;;;;;;11.57;61.74;99513.66;106929;1260;60226;-38
2023/10/04 02:33:53;;;;;;;25.00;12.80;;;;;;;11.55;61.92;99510.98;106873;1260;59989;-39
2023/10/04 02:36:23;;;;;;;31.50;13.00;;;;;;;11.54;62.07;99507.94;106870;1260;73114;-39
2023/10/04 02:38:50;;;;;;;24.20;13.40;;;;;;;11.52;62.01;99506.43;106851;1261;67658;-39
2023/10/04 02:41:20;;;;;;;24.30;12.50;;;;;;;11.48;62.04;99501.88;106853;1261;71436;-39
2023/10/04 02:43:48;;;;;;;23.50;12.60;;;;;;;11.46;62.13;99501.37;106839;1261;60155;-38
2023/10/04 02:46:20;;;;;;;24.50;12.70;;;;;;;11.43;62.20;99501.85;106889;1264;60054;-38
2023/10/04 02:48:48;;;;;;;28.40;13.50;;;;;;;11.42;62.32;99502.16;106868;1260;73034;-38
2023/10/04 02:51:16;;;;;;;22.80;12.60;;;;;;;11.45;62.30;99502.83;106846;1260;66316;-37
2023/10/04 02:53:44;;;;;;;25.60;12.60;;;;;;;11.45;62.42;99500.66;106783;1261;71381;-38
2023/10/04 02:56:12;;;;;;;27.70;12.20;;;;;;;11.44;62.44;99497.75;106756;1260;59352;-38
2023/10/04 02:58:42;;;;;;;25.50;13.70;;;;;;;11.39;62.49;99492.58;106894;1260;59588;-38
2023/10/04 03:01:19;;;;;;;24.40;13.20;;;;;;;11.38;62.54;99489.52;107108;1258;71853;-38
2023/10/04 03:03:51;;;;;;;23.60;12.80;;;;;;;11.35;62.60;99486.07;107120;1260;67565;-38
2023/10/04 03:06:23;;;;;;;23.60;12.40;;;;;;;11.33;62.74;99484.55;107133;1257;71076;-38
2023/10/04 03:08:55;;;;;;;27.00;13.90;;;;;;;11.29;62.85;99478.03;107122;1257;59823;-38
2023/10/04 03:11:23;;;;;;;26.90;13.20;;;;;;;11.28;62.91;99477.95;107156;1257;59644;-38
2023/10/04 03:13:51;;;;;;;24.80;12.40;;;;;;;11.29;62.91;99473.14;107128;1257;73090;-38
2023/10/04 03:16:20;;;;;;;25.70;12.30;;;;;;;11.27;62.90;99468.09;107118;1262;66746;-38
2023/10/04 03:18:49;;;;;;;26.00;12.80;;;;;;;11.25;62.97;99465.17;107236;1257;71866;-38
2023/10/04 03:21:20;;;;;;;23.60;12.80;;;;;;;11.28;63.05;99464.30;107156;1258;61110;-38
2023/10/04 03:23:49;;;;;;;25.70;12.70;;;;;;;11.35;62.91;99459.69;107171;1257;59631;-38
2023/10/04 03:26:19;;;;;;;22.70;12.30;;;;;;;11.39;62.92;99459.04;107073;1257;71921;-38
2023/10/04 03:28:52;;;;;;;26.20;12.90;;;;;;;11.40;62.91;99463.02;107115;1257;65460;-38
2023/10/04 03:31:24;;;;;;;26.70;12.80;;;;;;;11.41;62.72;99468.23;107124;1257;72691;-38
2023/10/04 03:33:55;;;;;;;23.30;12.10;;;;;;;11.38;62.78;99466.95;107088;1260;59654;-38
2023/10/04 03:36:26;;;;;;;24.70;11.70;;;;;;;11.36;62.79;99465.30;107104;1257;59503;-38
2023/10/04 03:38:58;;;;;;;28.20;12.90;;;;;;;11.32;62.83;99458.40;107152;1257;72267;-38
2023/10/04 03:41:27;;;;;;;;;;;;;;;11.27;62.91;99464.96;107119;1257;67636;-38
2023/10/04 03:43:58;;;;;;;24.50;12.40;;;;;;;11.21;63.14;99459.84;107330;1260;71087;-38
2023/10/04 03:46:26;;;;;;;22.00;11.80;;;;;;;11.16;63.29;99465.02;107130;1260;59641;-38
2023/10/04 03:48:58;;;;;;;27.10;13.50;;;;;;;11.11;63.40;99466.86;107138;1257;59587;-38
2023/10/04 03:51:29;;;;;;;26.10;13.10;;;;;;;11.09;63.67;99474.41;107080;1257;71778;-38
2023/10/04 03:54:05;;;;;;;28.40;12.90;;;;;;;11.10;63.62;99471.19;107221;1257;68106;-38
2023/10/04 03:56:33;;;;;;;26.00;12.90;;;;;;;11.15;63.47;99469.48;107200;1257;71390;-38
2023/10/04 03:59:03;;;;;;;26.80;12.80;;;;;;;11.15;63.64;99470.33;106997;1257;59394;-38
2023/10/04 04:01:32;;;;;;;24.10;13.70;;;;;;;11.13;63.55;99468.38;107084;1257;59504;-38
2023/10/04 04:04:03;;;;;;;25.20;13.50;;;;;;;11.11;63.59;99472.90;107109;1257;73171;-38
2023/10/04 04:06:32;;;;;;;30.00;13.90;;;;;;;11.10;63.78;99476.30;107119;1257;66544;-38
2023/10/04 04:09:04;;;;;;;25.10;13.50;;;;;;;11.10;63.79;99477.90;107087;1258;72713;-38
2023/10/04 04:11:32;;;;;;;28.20;13.40;;;;;;;11.06;63.79;99473.98;107120;1257;59650;-38
2023/10/04 04:14:00;;;;;;;27.10;13.40;;;;;;;11.04;63.93;99474.09;107059;1257;60052;-38
2023/10/04 04:16:28;;;;;;;27.00;13.20;;;;;;;11.00;63.97;99474.17;107056;1257;73018;-38
2023/10/04 04:18:59;;;;;;;29.00;14.50;;;;;;;10.96;63.99;99477.42;107095;1262;67593;-38
2023/10/04 04:21:29;;;;;;;31.30;13.60;;;;;;;10.97;64.09;99466.61;107036;1259;71913;-38
2023/10/04 04:23:57;;;;;;;20.30;11.80;;;;;;;11.00;64.11;99461.30;107098;1258;59697;-37
2023/10/04 04:26:27;;;;;;;23.80;13.30;;;;;;;10.98;64.17;99450.88;107107;1257;59164;-37
2023/10/04 04:28:55;;;;;;;25.60;12.90;;;;;;;10.95;64.36;99452.05;107089;1263;71768;-37
2023/10/04 04:31:23;;;;;;;23.30;12.60;;;;;;;10.93;64.62;99455.13;107071;1257;67624;-37
2023/10/04 04:33:53;;;;;;;23.70;12.70;;;;;;;10.92;64.79;99454.04;107019;1263;72709;-37
2023/10/04 04:36:32;;;;;;;24.00;12.90;;;;;;;10.92;64.87;99447.68;107064;1259;59691;-37
2023/10/04 04:39:09;;;;;;;28.10;12.90;;;;;;;10.95;64.86;99452.37;107093;1257;59349;-37
2023/10/04 04:41:38;;;;;;;24.60;12.60;;;;;;;10.99;64.82;99438.50;107078;1257;71936;-37
2023/10/04 04:44:10;;;;;;;24.50;12.00;;;;;;;11.06;64.70;99438.55;107024;1257;67583;-37
2023/10/04 04:46:43;;;;;;;24.40;12.10;;;;;;;11.11;64.61;99435.61;107067;1257;71572;-37
2023/10/04 04:49:12;;;;;;;26.50;12.70;;;;;;;11.17;64.56;99437.36;107123;1257;60055;-37
2023/10/04 04:51:39;;;;;;;31.00;12.70;;;;;;;11.22;64.51;99436.82;107124;1257;60006;-38
2023/10/04 04:54:07;;;;;;;23.80;12.30;;;;;;;11.28;64.36;99434.29;107062;1257;73117;-38
2023/10/04 04:56:35;;;;;;;25.30;13.10;;;;;;;11.33;64.31;99425.22;107110;1257;66306;-38
2023/10/04 04:59:14;;;;;;;27.00;12.90;;;;;;;11.38;64.33;99425.77;107060;1258;71426;-38
2023/10/04 05:01:42;;;;;;;28.50;13.90;;;;;;;11.44;64.07;99425.32;107000;1260;60800;-38
2023/10/04 05:04:11;;;;;;;23.60;12.00;;;;;;;11.53;64.14;99429.73;107071;1257;59593;-38
2023/10/04 05:06:39;;;;;;;25.70;12.00;;;;;;;11.65;63.86;99439.39;107085;1258;73102;-38
2023/10/04 05:09:10;;;;;;;23.40;12.10;;;;;;;11.76;63.92;99442.47;107121;1258;67553;-38
2023/10/04 05:11:38;;;;;;;29.20;13.00;;;;;;;11.86;63.67;99444.78;107227;1257;72673;-38
2023/10/04 05:14:06;;;;;;;25.20;12.90;;;;;;;11.95;63.48;99445.63;107063;1258;60115;-38
2023/10/04 05:16:34;;;;;;;22.40;12.30;;;;;;;12.04;63.18;99442.88;107082;1257;60374;-38
2023/10/04 05:19:10;;;;;;;27.40;11.60;;;;;;;12.13;62.98;99449.76;107063;1257;73905;-38
2023/10/04 05:21:37;;;;;;;27.90;13.00;;;;;;;12.21;62.70;99458.17;107077;1263;66622;-38
2023/10/04 05:24:06;;;;;;;29.10;12.70;;;;;;;12.29;62.11;99451.98;107083;1262;72723;-38
2023/10/04 05:26:35;;;;;;;28.20;12.30;;;;;;;12.39;61.92;99445.77;107102;1257;61677;-38
2023/10/04 05:29:03;;;;;;;27.90;12.80;;;;;;;12.51;61.61;99431.31;107104;1257;60444;-38
2023/10/04 05:31:31;;;;;;;24.60;12.50;;;;;;;12.61;61.62;99427.54;107081;1257;74318;-38
2023/10/04 05:33:59;;;;;;;23.90;11.60;;;;;;;12.71;61.05;99432.85;107086;1257;67617;-38
2023/10/04 05:36:27;;;;;;;25.00;11.60;;;;;;;12.79;60.92;99433.49;107063;1257;73716;-38
2023/10/04 05:38:55;;;;;;;28.50;12.40;;;;;;;12.86;60.55;99430.15;107049;1263;60342;-38
2023/10/04 05:41:25;;;;;;;23.20;12.20;;;;;;;12.92;60.41;99436.75;107060;1257;60441;-38
2023/10/04 05:43:52;;;;;;;29.00;11.90;;;;;;;12.96;60.44;99438.58;107053;1257;73260;-38
2023/10/04 05:46:20;;;;;;;23.10;12.20;;;;;;;12.98;60.35;99438.59;107064;1257;66617;-38
2023/10/04 05:48:48;;;;;;;20.40;11.30;;;;;;;12.99;60.44;99437.20;107039;1263;72744;-38
2023/10/04 05:51:17;;;;;;;25.50;11.70;;;;;;;13.00;60.57;99438.01;107052;1259;60561;-38
2023/10/04 05:53:47;;;;;;;23.30;11.60;;;;;;;13.03;60.61;99441.83;107120;1257;60031;-38
2023/10/04 05:56:17;;;;;;;26.50;11.80;;;;;;;13.06;60.53;99441.94;107062;1257;73496;-38
2023/10/04 05:58:46;;;;;;;25.10;11.60;;;;;;;13.14;60.56;99442.91;107118;1258;68338;-38
2023/10/04 06:01:17;;;;;;;24.40;11.10;;;;;;;13.23;60.41;99440.98;107065;1259;72743;-38
2023/10/04 06:03:45;;;;;;;23.80;12.00;;;;;;;13.29;60.31;99440.02;107055;1260;60151;-38
2023/10/04 06:06:13;;;;;;;23.20;12.00;;;;;;;13.35;60.23;99439.52;107070;1257;60047;-38
2023/10/04 06:08:43;;;;;;;21.20;11.30;;;;;;;13.39;59.92;99442.36;107091;1257;73863;-38
2023/10/04 06:11:14;;;;;;;22.00;11.10;;;;;;;13.45;59.91;99441.09;107076;1257;67890;-38
2023/10/04 06:13:41;;;;;;;18.80;10.20;;;;;;;13.50;59.88;99439.58;107058;1259;72710;-38
2023/10/04 06:16:11;;;;;;;20.20;10.40;;;;;;;13.55;59.65;99449.27;107057;1259;60479;-38
2023/10/04 06:18:41;;;;;;;19.50;8.90;;;;;;;13.60;59.63;99452.89;107084;1260;60534;-38
2023/10/04 06:21:11;;;;;;;24.90;10.80;;;;;;;13.65;59.81;99451.92;107109;1260;73862;-38
2023/10/04 06:23:39;;;;;;;22.10;10.60;;;;;;;13.70;59.66;99452.58;107041;1260;67596;-38
2023/10/04 06:26:07;;;;;;;19.60;10.10;;;;;;;13.75;59.58;99452.54;107062;1260;71438;-38
2023/10/04 06:28:34;;;;;;;22.30;10.00;;;;;;;13.80;59.48;99444.08;107114;1265;61240;-38
2023/10/04 06:31:02;;;;;;;22.10;10.10;;;;;;;13.84;59.44;99447.77;107103;1260;60337;-38
2023/10/04 06:33:30;;;;;;;24.90;11.00;;;;;;;13.88;59.01;99450.77;107067;1260;73903;-38
2023/10/04 06:35:58;;;;;;;23.00;10.50;;;;;;;13.90;58.97;99452.02;107169;1260;67950;-38
2023/10/04 06:38:26;;;;;;;20.00;10.50;;;;;;;13.93;59.07;99450.65;107074;1260;72731;-38
2023/10/04 06:40:54;;;;;;;20.50;10.00;;;;;;;13.96;59.17;99446.61;107081;1260;60284;-38
2023/10/04 06:43:21;;;;;;;22.40;10.90;;;;;;;14.00;59.03;99452.24;107083;1259;60390;-38
2023/10/04 06:45:49;;;;;;;22.90;11.60;;;;;;;14.05;59.24;99455.32;107061;1259;73841;-38
2023/10/04 06:48:17;;;;;;;21.00;11.00;;;;;;;14.10;59.17;99451.45;107076;1260;67788;-38
2023/10/04 06:50:49;;;;;;;23.90;11.00;;;;;;;14.15;59.21;99450.16;107097;1260;72703;-38
2023/10/04 06:53:17;;;;;;;23.30;10.30;;;;;;;14.22;59.08;99445.99;107070;1260;60319;-38
2023/10/04 06:55:45;;;;;;;21.90;10.80;;;;;;;14.27;58.90;99449.38;107130;1260;60363;-38
2023/10/04 06:58:13;;;;;;;18.80;9.60;;;;;;;14.31;58.93;99445.27;107051;1259;73940;-38
2023/10/04 07:00:41;;;;;;;21.20;10.40;;;;;;;14.38;59.02;99452.27;107059;1259;67910;-38
2023/10/04 07:03:10;;;;;;;21.40;9.50;;;;;;;14.44;59.13;99456.50;107040;1260;72667;-38
2023/10/04 07:05:40;;;;;;;18.10;9.60;;;;;;;14.49;58.95;99457.61;107057;1260;59614;-38
2023/10/04 07:08:12;;;;;;;13.60;6.80;;;;;;;14.56;58.95;99463.50;107054;1258;60380;-38
2023/10/04 07:10:42;;;;;;;20.00;9.70;;;;;;;14.63;59.16;99458.54;107079;1259;73860;-37
2023/10/04 07:13:10;;;;;;;21.30;9.30;;;;;;;14.71;58.81;99459.89;107054;1259;67736;-38
2023/10/04 07:15:39;;;;;;;24.40;10.30;;;;;;;14.78;58.76;99470.05;107032;1260;72680;-38
2023/10/04 07:18:10;;;;;;;21.20;10.90;;;;;;;14.87;58.63;99471.02;107039;1263;59473;-38
2023/10/04 07:20:39;;;;;;;20.80;10.40;;;;;;;14.95;58.36;99476.19;107107;1258;60470;-38
2023/10/04 07:23:08;;;;;;;22.10;10.00;;;;;;;15.02;58.50;99474.11;107065;1263;73860;-38
2023/10/04 07:25:47;;;;;;;24.20;10.40;;;;;;;15.10;58.58;99482.01;107125;1260;66646;-38
2023/10/04 07:28:15;;;;;;;22.10;9.30;;;;;;;15.20;58.56;99486.63;107031;1260;71717;-38
2023/10/04 07:30:43;;;;;;;15.20;8.40;;;;;;;15.31;58.32;99480.48;107058;1258;60248;-38
2023/10/04 07:33:11;;;;;;;11.10;6.30;;;;;;;15.40;58.19;99486.82;107041;1260;60413;-39
2023/10/04 07:35:40;;;;;;;19.80;9.20;;;;;;;15.50;58.35;99489.66;107127;1262;73861;-39
2023/10/04 07:38:07;;;;;;;19.80;8.80;;;;;;;15.62;58.19;99491.71;107053;1259;67562;-38
2023/10/04 07:40:36;;;;;;;22.30;9.00;;;;;;;15.75;58.22;99496.56;107090;1263;72878;-38
2023/10/04 07:43:03;;;;;;;18.70;9.00;;;;;;;15.89;58.17;99496.17;107060;1260;60428;-39
2023/10/04 07:45:31;;;;;;;14.00;8.00;;;;;;;16.02;58.44;99496.39;107107;1260;60531;-39
2023/10/04 07:48:01;;;;;;;13.50;8.00;;;;;;;16.16;58.04;99502.80;107040;1260;72154;-39
2023/10/04 07:50:31;;;;;;;15.70;8.80;;;;;;;16.27;58.00;99497.30;107101;1260;67890;-39
2023/10/04 07:53:00;;;;;;;;;;;;;;;16.35;58.00;99500.17;107197;1260;72723;-39
2023/10/04 07:55:28;;;;;;;19.00;8.90;;;;;;;16.41;57.99;99504.46;107089;1260;62209;-39
2023/10/04 07:57:58;;;;;;;18.70;8.80;;;;;;;16.47;57.89;99503.82;107064;1260;60470;-39
2023/10/04 08:00:26;;;;;;;17.80;8.60;;;;;;;16.53;58.05;99505.91;107116;1258;74504;-39
2023/10/04 08:02:54;;;;;;;17.90;9.00;;;;;;;16.58;58.06;99509.83;107051;1260;67580;-39
2023/10/04 08:05:26;;;;;;;20.50;9.40;;;;;;;16.63;57.67;99509.83;107452;1254;72738;-39
2023/10/04 08:07:55;;;;;;;19.00;9.20;;;;;;;16.67;57.91;99509.89;107351;1257;60520;-39
2023/10/04 08:10:25;;;;;;;16.00;8.30;;;;;;;16.72;58.14;99510.19;107394;1253;60356;-39
2023/10/04 08:12:54;;;;;;;13.10;7.90;;;;;;;16.78;58.17;99512.59;107341;1253;73857;-39
2023/10/04 08:15:25;;;;;;;15.90;8.40;;;;;;;16.85;58.33;99516.79;107385;1254;67412;-38
2023/10/04 08:17:55;;;;;;;19.50;8.10;;;;;;;16.89;58.53;99525.13;107482;1254;71896;-39
2023/10/04 08:20:24;;;;;;;18.80;7.60;;;;;;;16.93;58.51;99523.48;107491;1254;61146;-39
2023/10/04 08:22:51;;;;;;;15.20;8.30;;;;;;;16.94;58.50;99527.77;107422;1253;59906;-39
2023/10/04 08:25:20;;;;;;;14.40;8.40;;;;;;;16.95;58.62;99532.77;107471;1254;76070;-39
2023/10/04 08:27:48;;;;;;;15.80;8.10;;;;;;;16.94;58.87;99536.63;107525;1259;68726;-39
2023/10/04 08:30:18;;;;;;;14.70;7.10;;;;;;;16.93;59.02;99538.83;107353;1255;74834;-39
2023/10/04 08:32:47;;;;;;;15.10;7.10;;;;;;;16.97;59.17;99542.02;107394;1254;61896;-39
2023/10/04 08:35:21;;;;;;;14.00;7.60;;;;;;;17.01;59.15;99538.16;107423;1253;62117;-39
2023/10/04 08:37:53;;;;;;;13.10;7.30;;;;;;;17.04;59.15;99537.75;107509;1258;75963;-39
2023/10/04 08:40:22;;;;;;;14.10;7.20;;;;;;;17.07;58.88;99538.45;107426;1259;68967;-39
2023/10/04 08:42:50;;;;;;;14.00;7.10;;;;;;;17.10;58.95;99538.98;107491;1254;71884;-39
2023/10/04 08:45:22;;;;;;;14.10;7.50;;;;;;;17.14;58.94;99534.97;107476;1254;60182;-39
2023/10/04 08:47:51;;;;;;;15.60;7.70;;;;;;;17.19;59.09;99540.66;107363;1253;60395;-39
2023/10/04 08:50:44;;;;;;;13.80;7.40;;;;;;;17.25;59.11;99535.70;107357;1254;76001;-39
2023/10/04 08:53:28;;;;;;;16.00;7.90;;;;;;;17.31;59.06;99546.39;107359;1253;70195;-39
2023/10/04 08:55:59;;;;;;;22.60;8.60;;;;;;;17.34;58.88;99548.48;107314;1254;71260;-39
2023/10/04 08:58:27;;;;;;;16.10;8.10;;;;;;;17.36;58.75;99549.80;107383;1253;60449;-39
2023/10/04 09:00:54;;;;;;;17.80;7.40;;;;;;;17.36;58.72;99554.59;107485;1254;60392;-39
2023/10/04 09:03:22;;;;;;;15.20;7.80;;;;;;;17.35;58.84;99553.34;107470;1254;75896;-39
2023/10/04 09:05:52;;;;;;;15.90;8.40;;;;;;;17.34;58.95;99554.36;107300;1253;66783;-39
2023/10/04 09:08:22;;;;;;;13.50;7.80;;;;;;;17.33;59.42;99562.52;107457;1254;74788;-39
2023/10/04 09:10:50;;;;;;;;;;;;;;;17.31;59.42;99566.27;107379;1259;64762;-39
2023/10/04 09:13:18;;;;;;;16.30;7.70;;;;;;;17.33;59.53;99564.16;107433;1259;59685;-38
2023/10/04 09:15:45;;;;;;;15.40;7.60;;;;;;;17.35;59.69;99571.27;107467;1255;76091;-38
2023/10/04 09:18:24;;;;;;;14.00;7.70;;;;;;;17.34;59.53;99575.33;107340;1253;68107;-38
2023/10/04 09:20:52;;;;;;;14.30;7.60;;;;;;;17.32;59.76;99576.92;107358;1254;72792;-38
2023/10/04 09:23:22;;;;;;;15.20;8.10;;;;;;;17.30;59.80;99574.27;107446;1259;60527;-38
2023/10/04 09:25:55;;;;;;;11.20;7.20;;;;;;;17.29;60.02;99580.14;107473;1254;60412;-38
2023/10/04 09:28:38;;;;;;;13.70;7.40;;;;;;;17.29;60.17;99579.59;107487;1259;76043;-38
2023/10/04 09:31:12;;;;;;;12.90;7.10;;;;;;;17.31;60.11;99577.01;107457;1254;68014;-38
2023/10/04 09:33:41;;;;;;;16.00;7.50;;;;;;;17.30;60.14;99582.48;107390;1257;71479;-38
2023/10/04 09:36:13;;;;;;;14.50;7.10;;;;;;;17.30;60.22;99583.19;107451;1260;61199;-38
2023/10/04 09:38:41;;;;;;;12.30;6.90;;;;;;;17.32;60.61;99590.63;107391;1254;62349;-38
2023/10/04 09:41:10;;;;;;;14.10;7.40;;;;;;;17.37;60.64;99583.31;107335;1254;75892;-38
2023/10/04 09:43:39;;;;;;;14.60;7.70;;;;;;;17.47;60.49;99586.63;107522;1259;66825;-38
2023/10/04 09:46:10;;;;;;;16.30;7.40;;;;;;;17.50;60.36;99589.59;107514;1259;73036;-38
2023/10/04 09:48:44;;;;;;;13.40;7.70;;;;;;;17.51;60.25;99585.13;107416;1254;60451;-38
2023/10/04 09:51:13;;;;;;;13.00;7.10;;;;;;;17.53;60.35;99594.27;107398;1258;60997;-38
2023/10/04 09:53:42;;;;;;;15.50;7.50;;;;;;;17.56;60.40;99594.95;107389;1259;76021;-38
2023/10/04 09:56:13;;;;;;;13.00;7.40;;;;;;;17.62;60.33;99598.56;107408;1259;68033;-38
2023/10/04 09:58:48;;;;;;;11.50;6.50;;;;;;;17.69;60.45;99607.05;107360;1259;72886;-38
2023/10/04 10:01:22;;;;;;;12.80;6.20;;;;;;;17.77;59.95;99603.48;107483;1258;60270;-38
2023/10/04 10:04:01;;;;;;;9.80;6.30;;;;;;;17.84;59.96;99606.02;107324;1259;61063;-38
2023/10/04 10:06:32;;;;;;;12.30;6.60;;;;;;;17.87;59.69;99608.42;107335;1254;72736;-38
2023/10/04 10:09:02;;;;;;;12.00;6.10;;;;;;;17.88;59.81;99606.77;107390;1254;67749;-38
2023/10/04 10:11:32;;;;;;;10.70;6.00;;;;;;;17.88;59.85;99611.08;107389;1257;71524;-38
2023/10/04 10:14:10;;;;;;;;;;;;;;;17.86;59.83;99607.83;107342;1257;60806;-38
2023/10/04 10:16:38;;;;;;;16.70;6.60;;;;;;;17.87;60.03;99611.64;107468;1259;60530;-38
2023/10/04 10:19:06;;;;;;;11.30;5.90;;;;;;;17.88;60.16;99611.00;107516;1258;74458;-38
2023/10/04 10:22:02;;;;;;;12.30;6.20;;;;;;;17.89;60.26;99617.20;107289;1261;69770;-38
2023/10/04 10:24:30;;;;;;;12.00;6.20;;;;;;;17.89;60.29;99622.69;107316;1258;73594;-38
2023/10/04 10:27:06;;;;;;;15.60;6.40;;;;;;;17.90;60.22;99622.44;107446;1257;61063;-38
2023/10/04 10:29:36;;;;;;;12.10;6.10;;;;;;;17.91;60.34;99624.94;107126;1254;60455;-38
2023/10/04 10:32:06;;;;;;;14.90;6.20;;;;;;;17.94;60.42;99627.20;107442;1254;74229;-38
2023/10/04 10:34:34;;;;;;;11.70;5.70;;;;;;;17.97;60.36;99630.46;107128;1262;66744;-38
2023/10/04 10:37:24;;;;;;;10.40;5.90;;;;;;;18.02;60.67;99628.94;107371;1254;71480;-38
2023/10/04 10:39:53;;;;;;;13.30;6.10;;;;;;;18.13;60.73;99625.65;107424;1254;59718;-38
2023/10/04 10:42:21;;;;;;;8.50;6.00;;;;;;;18.27;60.66;99628.83;107357;1253;60423;-38
2023/10/04 10:44:50;;;;;;;8.80;5.40;;;;;;;18.43;60.31;99639.05;107365;1255;73271;-38
2023/10/04 10:47:22;;;;;;;14.10;5.40;;;;;;;18.58;59.87;99643.42;107454;1259;66504;-38
2023/10/04 10:49:58;;;;;;;8.90;5.40;;;;;;;18.68;59.22;99643.48;107417;1254;71519;-38
2023/10/04 10:52:29;;;;;;;11.90;5.40;;;;;;;18.73;58.93;99644.69;107478;1256;60655;-38
2023/10/04 10:54:57;;;;;;;9.40;4.80;;;;;;;18.78;58.75;99644.25;107394;1254;60549;-38
2023/10/04 10:57:29;;;;;;;9.30;4.50;;;;;;;18.82;58.36;99646.02;107408;1260;72748;-38
2023/10/04 11:00:02;;;;;;;8.60;4.90;;;;;;;18.86;58.07;99651.95;107452;1259;67870;-39
2023/10/04 11:02:30;;;;;;;9.30;5.00;;;;;;;18.89;58.08;99648.55;107369;1257;74806;-38
2023/10/04 11:04:58;;;;;;;10.50;4.90;;;;;;;18.90;57.97;99658.81;107468;1255;60411;-38
2023/10/04 11:07:26;;;;;;;7.70;5.00;;;;;;;18.87;57.83;99664.09;107469;1259;60611;-38
2023/10/04 11:09:54;;;;;;;8.20;5.00;;;;;;;18.83;57.80;99660.92;107370;1259;75001;-38
2023/10/04 11:12:23;;;;;;;10.50;5.40;;;;;;;18.79;58.12;99665.90;107401;1259;68449;-38
2023/10/04 11:14:54;;;;;;;9.30;5.10;;;;;;;18.76;58.29;99670.09;107373;1257;71539;-38
2023/10/04 11:17:21;;;;;;;9.70;5.10;;;;;;;18.76;58.34;99674.33;107365;1258;62117;-38
2023/10/04 11:19:52;;;;;;;9.50;5.50;;;;;;;18.78;58.37;99674.86;107463;1259;60416;-38
2023/10/04 11:22:19;;;;;;;7.50;5.40;;;;;;;18.81;57.66;99676.25;107366;1253;72707;-38
2023/10/04 11:24:47;;;;;;;9.20;5.30;;;;;;;18.86;57.67;99673.77;107459;1260;65502;-38
2023/10/04 11:27:20;;;;;;;9.20;5.40;;;;;;;18.93;57.12;99672.91;107473;1260;71041;-38